createdAt,value
2023-01-28T00:01:31.123Z,1.30
2023-01-28T00:03:58.577Z,1.60
2023-01-28T00:06:26.531Z,1.90
2023-01-28T00:08:55.757Z,2.45
2023-01-28T00:11:23.704Z,2.45
2023-01-28T00:13:52.549Z,1.17
2023-01-28T00:16:22.720Z,1.83
2023-01-28T00:18:50.234Z,0.93
2023-01-28T00:21:17.689Z,1.58
2023-01-28T00:23:51.056Z,1.58
2023-01-28T00:26:18.534Z,1.38
2023-01-28T00:28:46.408Z,3.20
2023-01-28T00:31:17.037Z,1.80
2023-01-28T00:33:46.419Z,2.85
2023-01-28T00:36:15.663Z,1.15
2023-01-28T00:41:12.430Z,2.72
2023-01-28T00:46:08.731Z,2.15
2023-01-28T00:48:36.837Z,1.50
2023-01-28T00:51:06.253Z,1.80
2023-01-28T00:53:36.105Z,1.20
2023-01-28T00:56:03.618Z,2.13
2023-01-28T00:58:31.130Z,2.40
2023-01-28T01:00:58.653Z,3.08
2023-01-28T01:03:26.087Z,1.45
2023-01-28T01:05:53.516Z,2.40
2023-01-28T01:08:34.986Z,3.65
2023-01-28T01:13:30.472Z,2.83
2023-01-28T01:16:08.705Z,2.42
2023-01-28T01:18:36.834Z,2.80
2023-01-28T01:21:08.241Z,2.70
2023-01-28T01:23:37.150Z,1.83
2023-01-28T01:26:05.319Z,3.00
2023-01-28T01:28:33.610Z,2.35
2023-01-28T01:31:02.194Z,2.63
2023-01-28T01:33:30.509Z,2.33
2023-01-28T01:35:58.516Z,2.50
2023-01-28T01:38:26.687Z,2.30
2023-01-28T01:40:57.855Z,1.17
2023-01-28T01:43:25.446Z,2.30
2023-01-28T01:45:58.177Z,2.03
2023-01-28T01:48:32.934Z,2.85
2023-01-28T01:51:03.101Z,2.45
2023-01-28T01:53:32.330Z,2.63
2023-01-28T01:58:34.824Z,3.10
2023-01-28T02:01:03.021Z,3.10
2023-01-28T02:03:37.943Z,2.10
2023-01-28T02:06:05.920Z,2.13
2023-01-28T02:08:33.437Z,2.85
2023-01-28T02:11:05.860Z,3.47
2023-01-28T02:13:37.290Z,2.80
2023-01-28T02:16:06.474Z,0.93
2023-01-28T02:21:30.094Z,3.78
2023-01-28T02:24:24.941Z,3.67
2023-01-28T02:27:15.630Z,2.80
2023-01-28T02:29:51.678Z,3.20
2023-01-28T02:32:24.853Z,4.00
2023-01-28T02:34:59.901Z,3.75
2023-01-28T02:37:34.008Z,3.65
2023-01-28T02:40:06.850Z,2.75
2023-01-28T02:42:37.951Z,4.10
2023-01-28T02:45:16.708Z,3.92
2023-01-28T02:47:58.339Z,0.88
2023-01-28T02:50:34.188Z,2.97
2023-01-28T02:53:33.554Z,3.15
2023-01-28T02:56:13.027Z,4.10
2023-01-28T02:58:48.805Z,4.60
2023-01-28T03:01:23.670Z,4.63
2023-01-28T03:04:00.177Z,4.82
2023-01-28T03:06:32.860Z,3.05
2023-01-28T03:09:20.933Z,3.17
2023-01-28T03:12:09.310Z,4.68
2023-01-28T03:14:57.586Z,4.03
2023-01-28T03:17:49.117Z,3.55
2023-01-28T03:20:34.896Z,3.33
2023-01-28T03:23:26.021Z,3.35
2023-01-28T03:26:14.977Z,4.93
2023-01-28T03:29:03.350Z,4.57
2023-01-28T03:31:48.690Z,4.75
2023-01-28T03:34:36.374Z,3.72
2023-01-28T03:39:31.954Z,3.60
2023-01-28T03:42:01.683Z,3.92
2023-01-28T03:44:46.685Z,2.75
2023-01-28T03:47:14.267Z,6.00
2023-01-28T03:49:45.586Z,5.10
2023-01-28T03:52:13.223Z,6.45
2023-01-28T03:54:40.669Z,4.68
2023-01-28T03:57:08.259Z,6.13
2023-01-28T03:59:35.783Z,5.82
2023-01-28T04:02:04.088Z,4.00
2023-01-28T04:04:32.543Z,5.13
2023-01-28T04:07:01.582Z,3.92
2023-01-28T04:09:29.058Z,4.72
2023-01-28T04:11:56.545Z,6.05
2023-01-28T04:14:24.025Z,4.43
2023-01-28T04:16:51.998Z,5.10
2023-01-28T04:19:19.450Z,4.65
2023-01-28T04:21:47.448Z,5.22
2023-01-28T04:24:17.012Z,4.15
2023-01-28T04:26:44.488Z,4.47
2023-01-28T04:29:11.955Z,7.30
2023-01-28T04:31:41.822Z,4.95
2023-01-28T04:34:09.941Z,5.40
2023-01-28T04:36:37.585Z,3.17
2023-01-28T04:39:05.301Z,4.95
2023-01-28T04:41:34.110Z,5.93
2023-01-28T04:44:01.593Z,3.67
2023-01-28T04:46:29.072Z,4.30
2023-01-28T04:48:56.521Z,4.53
2023-01-28T04:51:23.944Z,4.55
2023-01-28T04:53:51.452Z,4.18
2023-01-28T04:56:18.878Z,4.72
2023-01-28T04:58:47.698Z,4.25
2023-01-28T05:01:15.258Z,4.10
2023-01-28T05:03:42.792Z,5.88
2023-01-28T05:06:10.306Z,4.40
2023-01-28T05:08:37.806Z,5.88
2023-01-28T05:11:05.596Z,5.13
2023-01-28T05:13:33.110Z,3.78
2023-01-28T05:16:01.998Z,3.65
2023-01-28T05:18:29.437Z,5.93
2023-01-28T05:20:56.904Z,5.93
2023-01-28T05:23:24.517Z,5.60
2023-01-28T05:25:51.987Z,3.85
2023-01-28T05:28:19.421Z,3.70
2023-01-28T05:30:46.963Z,4.47
2023-01-28T05:33:15.766Z,4.32
2023-01-28T05:35:43.217Z,3.42
2023-01-28T05:38:11.018Z,5.15
2023-01-28T05:40:38.465Z,6.65
2023-01-28T05:43:05.898Z,6.72
2023-01-28T05:45:33.402Z,6.55
2023-01-28T05:48:00.871Z,5.35
2023-01-28T05:50:29.657Z,4.88
2023-01-28T05:52:57.140Z,4.88
2023-01-28T05:55:24.933Z,5.60
2023-01-28T05:57:52.394Z,5.10
2023-01-28T06:00:20.374Z,4.82
2023-01-28T06:02:47.869Z,5.47
2023-01-28T06:05:15.551Z,5.38
2023-01-28T06:07:47.036Z,5.55
2023-01-28T06:10:15.854Z,7.05
2023-01-28T06:12:43.592Z,6.72
2023-01-28T06:15:12.120Z,7.80
2023-01-28T06:17:39.980Z,5.22
2023-01-28T06:20:09.147Z,6.70
2023-01-28T06:25:06.417Z,7.35
2023-01-28T06:27:33.867Z,6.80
2023-01-28T06:30:01.676Z,7.28
2023-01-28T06:32:29.540Z,7.55
2023-01-28T06:34:57.401Z,7.15
2023-01-28T06:37:26.307Z,4.85
2023-01-28T06:39:53.812Z,5.35
2023-01-28T06:42:23.011Z,5.28
2023-01-28T06:47:17.753Z,5.25
2023-01-28T06:49:45.207Z,5.63
2023-01-28T06:52:12.703Z,6.60
2023-01-28T06:54:40.125Z,4.32
2023-01-28T06:57:07.589Z,6.60
2023-01-28T06:59:36.586Z,5.50
2023-01-28T07:02:04.069Z,6.80
2023-01-28T07:04:32.289Z,6.90
2023-01-28T07:06:59.764Z,5.93
2023-01-28T07:09:27.226Z,7.57
2023-01-28T07:11:54.658Z,6.40
2023-01-28T07:14:22.301Z,6.93
2023-01-28T07:16:51.186Z,4.00
2023-01-28T07:19:18.802Z,4.65
2023-01-28T07:21:46.245Z,4.40
2023-01-28T07:24:13.731Z,3.05
2023-01-28T07:26:41.204Z,3.10
2023-01-28T07:29:09.654Z,4.82
2023-01-28T07:31:37.280Z,4.25
2023-01-28T07:34:06.177Z,3.80
2023-01-28T07:36:33.634Z,6.05
2023-01-28T07:39:01.083Z,2.25
2023-01-28T07:41:29.070Z,4.07
2023-01-28T07:43:56.618Z,5.57
2023-01-28T07:46:24.073Z,3.97
2023-01-28T07:48:51.509Z,5.63
2023-01-28T07:51:20.311Z,5.00
2023-01-28T07:53:47.745Z,3.67
2023-01-28T07:56:15.258Z,4.03
2023-01-28T07:58:42.713Z,3.30
2023-01-28T08:01:10.173Z,2.90
2023-01-28T08:03:37.662Z,3.40
2023-01-28T08:06:05.862Z,2.08
2023-01-28T08:08:34.704Z,2.55
2023-01-28T08:11:08.786Z,2.50
2023-01-28T08:13:36.288Z,3.80
2023-01-28T08:16:03.859Z,4.40
2023-01-28T08:18:31.413Z,4.10
2023-01-28T08:21:00.197Z,2.40
2023-01-28T08:23:28.913Z,3.97
2023-01-28T08:25:59.980Z,3.40
2023-01-28T08:28:27.984Z,2.85
2023-01-28T08:30:55.527Z,3.60
2023-01-28T08:33:23.114Z,4.05
2023-01-28T08:35:50.583Z,3.00
2023-01-28T08:38:20.215Z,3.33
2023-01-28T08:40:47.828Z,2.38
2023-01-28T08:43:16.624Z,4.43
2023-01-28T08:45:44.058Z,3.13
2023-01-28T08:48:15.513Z,2.80
2023-01-28T08:50:43.821Z,3.17
2023-01-28T08:53:13.763Z,2.90
2023-01-28T08:55:41.551Z,3.30
2023-01-28T08:58:11.825Z,2.17
2023-01-28T09:00:41.208Z,2.38
2023-01-28T09:03:09.293Z,2.22
2023-01-28T09:05:37.978Z,2.50
2023-01-28T09:08:07.995Z,2.10
2023-01-28T09:10:37.384Z,1.95
2023-01-28T09:13:08.915Z,2.13
2023-01-28T09:15:36.414Z,1.90
2023-01-28T09:18:05.537Z,2.72
2023-01-28T09:20:33.520Z,0.55
2023-01-28T09:23:03.097Z,1.98
2023-01-28T09:25:31.196Z,2.08
2023-01-28T09:27:59.276Z,1.92
2023-01-28T09:30:27.130Z,2.47
2023-01-28T09:32:55.907Z,1.20
2023-01-28T09:35:25.305Z,1.83
2023-01-28T09:37:52.894Z,1.75
2023-01-28T09:40:29.928Z,1.20
2023-01-28T09:43:13.094Z,1.65
2023-01-28T09:45:43.627Z,1.02
2023-01-28T09:48:15.620Z,0.75
2023-01-28T09:50:48.714Z,1.48
2023-01-28T09:53:20.340Z,1.60
2023-01-28T09:55:51.093Z,1.42
2023-01-28T09:58:19.340Z,0.73
2023-01-28T10:00:58.927Z,1.50
2023-01-28T10:03:53.133Z,2.25
2023-01-28T10:06:35.168Z,1.83
2023-01-28T10:09:24.266Z,0.13
2023-01-28T10:12:09.525Z,2.03
2023-01-28T10:14:50.835Z,0.93
2023-01-28T10:17:27.459Z,1.15
2023-01-28T10:20:00.349Z,1.73
2023-01-28T10:22:35.982Z,1.10
2023-01-28T10:25:08.381Z,2.22
2023-01-28T10:27:37.197Z,1.30
2023-01-28T10:30:18.381Z,1.73
2023-01-28T10:32:52.432Z,1.10
2023-01-28T10:35:20.201Z,1.00
2023-01-28T10:37:49.367Z,0.45
2023-01-28T10:42:46.399Z,1.10
2023-01-28T10:45:21.967Z,1.20
2023-01-28T10:47:54.491Z,0.47
2023-01-28T10:50:24.394Z,1.27
2023-01-28T10:52:55.674Z,0.30
2023-01-28T10:55:25.369Z,1.05
2023-01-28T10:57:53.838Z,0.70
2023-01-28T11:00:27.084Z,0.90
2023-01-28T11:02:55.780Z,0.80
2023-01-28T11:05:27.157Z,1.02
2023-01-28T11:08:06.527Z,0.93
2023-01-28T11:10:36.146Z,0.70
2023-01-28T11:13:05.983Z,1.45
2023-01-28T11:15:34.156Z,1.17
2023-01-28T11:18:06.180Z,0.88
2023-01-28T11:20:41.987Z,0.65
2023-01-28T11:23:20.062Z,1.38
2023-01-28T11:25:47.819Z,0.38
2023-01-28T11:28:20.387Z,0.88
2023-01-28T11:30:53.143Z,0.70
2023-01-28T11:33:23.457Z,0.60
2023-01-28T11:35:55.294Z,1.60
2023-01-28T11:38:26.106Z,1.98
2023-01-28T11:40:55.176Z,0.80
2023-01-28T11:43:24.936Z,0.95
2023-01-28T11:46:04.766Z,0.82
2023-01-28T11:48:42.717Z,1.40
2023-01-28T11:51:23.842Z,0.95
2023-01-28T11:54:16.935Z,1.33
2023-01-28T11:57:01.228Z,1.40
2023-01-28T11:59:52.470Z,1.48
2023-01-28T12:02:39.125Z,1.67
2023-01-28T12:05:20.480Z,1.30
2023-01-28T12:07:55.463Z,1.38
2023-01-28T12:10:35.613Z,1.75
2023-01-28T12:13:19.743Z,1.48
2023-01-28T12:16:03.333Z,0.50
2023-01-28T12:18:51.998Z,1.08
2023-01-28T12:21:26.264Z,1.40
2023-01-28T12:24:05.497Z,1.40
2023-01-28T12:26:44.159Z,1.40
2023-01-28T12:29:24.269Z,0.85
2023-01-28T12:32:03.109Z,1.58
2023-01-28T12:34:55.876Z,1.77
2023-01-28T12:37:34.224Z,1.80
2023-01-28T12:40:17.795Z,0.22
2023-01-28T12:42:52.666Z,1.90
2023-01-28T12:45:24.257Z,1.73
2023-01-28T12:47:56.236Z,1.20
2023-01-28T12:50:28.662Z,1.38
2023-01-28T12:53:00.443Z,1.40
2023-01-28T12:55:40.980Z,1.83
2023-01-28T12:58:16.925Z,1.05
2023-01-28T13:00:49.298Z,0.77
2023-01-28T13:03:22.369Z,1.70
2023-01-28T13:05:53.272Z,1.80
2023-01-28T13:08:24.933Z,1.90
2023-01-28T13:10:53.558Z,1.15
2023-01-28T13:13:29.789Z,1.10
2023-01-28T13:15:57.621Z,0.82
2023-01-28T13:18:34.784Z,0.60
2023-01-28T13:21:03.414Z,0.82
2023-01-28T13:23:43.905Z,1.25
2023-01-28T13:26:27.574Z,1.40
2023-01-28T13:29:09.280Z,1.05
2023-01-28T13:31:41.547Z,1.63
2023-01-28T13:34:11.174Z,2.10
2023-01-28T13:36:45.001Z,1.30
2023-01-28T13:39:19.991Z,1.42
2023-01-28T13:41:49.750Z,1.15
2023-01-28T13:44:27.913Z,1.95
2023-01-28T13:46:57.415Z,1.42
2023-01-28T13:49:35.177Z,1.48
2023-01-28T13:52:08.832Z,0.68
2023-01-28T13:54:39.251Z,0.30
2023-01-28T13:58:08.592Z,2.75
2023-01-28T14:00:48.325Z,1.10
2023-01-28T14:03:37.450Z,1.90
2023-01-28T14:06:38.345Z,2.08
2023-01-28T14:09:35.398Z,1.38
2023-01-28T14:12:29.065Z,1.63
2023-01-28T14:15:26.445Z,2.03
2023-01-28T14:17:57.382Z,1.40
2023-01-28T14:20:31.810Z,2.22
2023-01-28T14:23:02.630Z,2.45
2023-01-28T14:25:37.030Z,2.72
2023-01-28T14:28:07.385Z,2.22
2023-01-28T14:30:44.405Z,2.10
2023-01-28T14:33:13.662Z,3.25
2023-01-28T14:38:17.525Z,1.70
2023-01-28T14:40:46.391Z,2.95
2023-01-28T14:43:20.291Z,3.22
2023-01-28T14:46:15.030Z,2.90
2023-01-28T14:48:50.947Z,1.63
2023-01-28T14:51:44.846Z,2.85
2023-01-28T14:54:47.406Z,4.20
2023-01-28T14:57:28.249Z,3.50
2023-01-28T15:00:00.984Z,1.85
2023-01-28T15:02:30.713Z,4.43
2023-01-28T15:05:10.532Z,2.97
2023-01-28T15:07:38.203Z,6.88
2023-01-28T15:10:08.845Z,3.28
2023-01-28T15:12:39.583Z,2.80
2023-01-28T15:15:12.024Z,3.78
2023-01-28T15:17:39.608Z,4.40
2023-01-28T15:20:10.341Z,1.88
2023-01-28T15:22:39.661Z,3.22
2023-01-28T15:25:07.510Z,3.78
2023-01-28T15:27:35.022Z,1.40
2023-01-28T15:30:02.488Z,2.75
2023-01-28T15:32:32.693Z,1.65
2023-01-28T15:35:01.773Z,2.33
2023-01-28T15:37:30.590Z,1.95
2023-01-28T15:40:02.309Z,2.63
2023-01-28T15:42:31.707Z,1.05
2023-01-28T15:44:59.935Z,1.45
2023-01-28T15:47:32.296Z,2.95
2023-01-28T15:50:02.393Z,2.88
2023-01-28T15:52:37.171Z,1.92
2023-01-28T15:55:07.058Z,1.13
2023-01-28T15:57:35.992Z,1.38
2023-01-28T16:00:16.201Z,1.33
2023-01-28T16:02:44.867Z,2.50
2023-01-28T16:05:27.393Z,2.35
2023-01-28T16:07:58.243Z,1.35
2023-01-28T16:10:29.381Z,1.48
2023-01-28T16:13:04.815Z,1.95
2023-01-28T16:17:59.645Z,1.83
2023-01-28T16:20:29.411Z,2.05
2023-01-28T16:23:00.904Z,1.40
2023-01-28T16:25:31.801Z,1.65
2023-01-28T16:28:00.990Z,1.35
2023-01-28T16:32:56.408Z,0.90
2023-01-28T16:35:25.907Z,0.82
2023-01-28T16:37:53.453Z,1.00
2023-01-28T16:40:24.380Z,0.73
2023-01-28T16:42:55.131Z,1.30
2023-01-28T16:45:24.697Z,1.00
2023-01-28T16:47:53.145Z,1.77
2023-01-28T16:50:21.947Z,2.25
2023-01-28T16:52:51.856Z,2.13
2023-01-28T16:55:22.628Z,0.85
2023-01-28T16:57:52.909Z,2.20
2023-01-28T17:00:23.019Z,2.35
2023-01-28T17:02:50.875Z,2.28
2023-01-28T17:05:19.702Z,2.08
2023-01-28T17:07:48.512Z,3.25
2023-01-28T17:10:16.729Z,2.90
2023-01-28T17:12:45.723Z,2.03
2023-01-28T17:15:13.169Z,2.05
2023-01-28T17:17:40.678Z,2.22
2023-01-28T17:20:09.497Z,2.47
2023-01-28T17:22:36.972Z,2.90
2023-01-28T17:25:04.736Z,1.35
2023-01-28T17:27:32.172Z,1.75
2023-01-28T17:30:00.959Z,1.88
2023-01-28T17:32:28.432Z,3.28
2023-01-28T17:34:55.866Z,2.90
2023-01-28T17:37:23.337Z,1.45
2023-01-28T17:39:50.869Z,2.30
2023-01-28T17:42:18.316Z,1.65
2023-01-28T17:44:45.769Z,2.33
2023-01-28T17:47:14.684Z,2.67
2023-01-28T17:49:42.142Z,1.83
2023-01-28T17:52:09.593Z,3.08
2023-01-28T17:54:37.063Z,2.45
2023-01-28T17:57:04.690Z,1.67
2023-01-28T17:59:32.125Z,2.22
2023-01-28T18:02:20.905Z,1.80
2023-01-28T18:04:48.369Z,2.42
2023-01-28T18:07:15.869Z,1.92
2023-01-28T18:09:45.766Z,2.55
2023-01-28T18:12:15.619Z,1.83
2023-01-28T18:14:43.165Z,2.78
2023-01-28T18:17:12.070Z,2.33
2023-01-28T18:19:40.910Z,1.55
2023-01-28T18:22:08.594Z,3.05
2023-01-28T18:24:36.071Z,1.67
2023-01-28T18:27:04.101Z,2.55
2023-01-28T18:29:32.357Z,2.80
2023-01-28T18:32:00.442Z,2.22
2023-01-28T18:34:31.239Z,3.15
2023-01-28T18:37:00.109Z,2.30
2023-01-28T18:39:30.186Z,2.40
2023-01-28T18:41:58.198Z,3.05
2023-01-28T18:44:26.946Z,3.03
2023-01-28T18:46:54.978Z,2.10
2023-01-28T18:49:22.443Z,2.65
2023-01-28T18:51:50.495Z,2.25
2023-01-28T18:54:20.288Z,3.47
2023-01-28T18:56:49.608Z,2.47
2023-01-28T18:59:17.409Z,3.95
2023-01-28T19:01:47.538Z,1.58
2023-01-28T19:04:15.855Z,1.95
2023-01-28T19:06:43.762Z,2.83
2023-01-28T19:09:13.068Z,3.53
2023-01-28T19:11:42.712Z,2.92
2023-01-28T19:14:12.966Z,2.20
2023-01-28T19:16:40.711Z,2.17
2023-01-28T19:19:08.293Z,4.10
2023-01-28T19:21:35.865Z,2.15
2023-01-28T19:24:06.445Z,1.92
2023-01-28T19:26:34.396Z,3.78
2023-01-28T19:29:03.531Z,2.85
2023-01-28T19:31:30.997Z,1.70
2023-01-28T19:34:00.952Z,2.83
2023-01-28T19:36:30.540Z,2.20
2023-01-28T19:38:59.826Z,2.05
2023-01-28T19:41:27.985Z,2.50
2023-01-28T19:43:55.935Z,2.63
2023-01-28T19:46:25.407Z,3.33
2023-01-28T19:48:53.225Z,1.80
2023-01-28T19:51:21.359Z,0.75
2023-01-28T19:53:51.805Z,3.47
2023-01-28T19:56:20.259Z,2.83
2023-01-28T19:58:47.827Z,2.05
2023-01-28T20:01:16.959Z,3.17
2023-01-28T20:03:46.537Z,1.83
2023-01-28T20:06:16.261Z,1.13
2023-01-28T20:08:44.536Z,2.22
2023-01-28T20:11:14.268Z,2.58
2023-01-28T20:13:43.782Z,3.15
2023-01-28T20:16:16.354Z,3.72
2023-01-28T20:18:43.851Z,3.28
2023-01-28T20:21:12.645Z,1.55
2023-01-28T20:23:40.153Z,2.30
2023-01-28T20:26:07.593Z,3.08
2023-01-28T20:28:35.260Z,3.55
2023-01-28T20:31:05.864Z,2.17
2023-01-28T20:33:33.581Z,3.05
2023-01-28T20:36:02.797Z,1.83
2023-01-28T20:40:58.993Z,2.22
2023-01-28T20:43:28.604Z,3.72
2023-01-28T20:46:03.266Z,3.38
2023-01-28T20:48:30.753Z,2.92
2023-01-28T20:50:58.199Z,4.20
2023-01-28T20:53:25.687Z,3.10
2023-01-28T20:55:58.358Z,4.15
2023-01-28T20:58:26.077Z,3.78
2023-01-28T21:00:53.665Z,2.38
2023-01-28T21:03:21.662Z,1.58
2023-01-28T21:05:49.947Z,2.67
2023-01-28T21:08:18.421Z,2.28
2023-01-28T21:10:46.185Z,2.53
2023-01-28T21:13:16.314Z,2.35
2023-01-28T21:15:52.494Z,3.15
2023-01-28T21:18:19.942Z,4.15
2023-01-28T21:20:47.449Z,3.58
2023-01-28T21:23:15.602Z,1.95
2023-01-28T21:25:43.258Z,0.93
2023-01-28T21:28:11.652Z,2.92
2023-01-28T21:30:40.658Z,1.25
2023-01-28T21:33:08.451Z,1.92
2023-01-28T21:35:38.191Z,1.67
2023-01-28T21:38:06.165Z,4.38
2023-01-28T21:40:34.579Z,4.60
2023-01-28T21:43:02.571Z,4.18
2023-01-28T21:45:30.050Z,4.53
2023-01-28T21:47:58.876Z,4.65
2023-01-28T21:50:26.427Z,4.38
2023-01-28T21:52:53.857Z,3.63
2023-01-28T21:55:21.360Z,2.78
2023-01-28T21:57:48.857Z,5.45
2023-01-28T22:00:16.682Z,5.13
2023-01-28T22:02:44.335Z,3.55
2023-01-28T22:05:13.112Z,3.22
2023-01-28T22:07:40.599Z,4.53
2023-01-28T22:10:09.044Z,3.42
2023-01-28T22:12:36.485Z,2.08
2023-01-28T22:15:06.802Z,2.63
2023-01-28T22:17:34.319Z,2.65
2023-01-28T22:20:01.782Z,2.85
2023-01-28T22:22:30.549Z,1.20
2023-01-28T22:24:57.996Z,2.70
2023-01-28T22:27:27.766Z,1.20
2023-01-28T22:29:57.302Z,3.78
2023-01-28T22:32:24.734Z,1.52
2023-01-28T22:34:52.174Z,1.38
2023-01-28T22:37:19.602Z,2.28
2023-01-28T22:39:48.391Z,2.30
2023-01-28T22:42:15.818Z,2.92
2023-01-28T22:44:43.278Z,5.45
2023-01-28T22:47:10.745Z,4.50
2023-01-28T22:49:38.198Z,2.10
2023-01-28T22:52:05.879Z,3.83
2023-01-28T22:54:33.337Z,2.17
2023-01-28T22:57:02.194Z,3.50
2023-01-28T22:59:29.675Z,2.75
2023-01-28T23:01:58.217Z,2.97
2023-01-28T23:04:25.810Z,5.03
2023-01-28T23:06:53.265Z,3.00
2023-01-28T23:09:20.694Z,3.35
2023-01-28T23:11:48.158Z,4.43
2023-01-28T23:14:34.749Z,3.70
2023-01-28T23:17:20.144Z,1.17
2023-01-28T23:20:05.258Z,2.40
2023-01-28T23:22:52.636Z,1.92
2023-01-28T23:25:20.724Z,4.15
2023-01-28T23:27:48.208Z,4.03
2023-01-28T23:30:18.081Z,2.40
2023-01-28T23:32:49.465Z,2.83
2023-01-28T23:35:18.818Z,1.55
2023-01-28T23:40:15.758Z,2.72
2023-01-28T23:42:44.625Z,1.83
2023-01-28T23:45:12.281Z,2.63
2023-01-28T23:47:41.129Z,2.63
2023-01-28T23:50:10.094Z,3.30
2023-01-28T23:52:37.596Z,1.30
2023-01-28T23:55:05.963Z,1.33
2023-01-28T23:57:34.253Z,2.80
